Friday, November 17, 2017, 4:19 PM EST
Back to Local

KORF, Norfolk International Airport

Location: Norfolk, VA, United States Lat: 36.9
Local Time: 4:19 PM EST (21:19 GMT) Lon: -76.2
Time Zone: US/Eastern Elev: 26 ft

Show me the last for .
Show Decoded

2017-11-17 15:51 METAR KORF 172051Z VRB04KT 10SM CLR 11/00 A3016 RMK AO2 SLP212 T01060000 55005 =
2017-11-17 14:51 METAR KORF 171951Z 28006KT 10SM CLR 12/01 A3015 RMK AO2 SLP208 T01220006 =
2017-11-17 13:51 METAR KORF 171851Z 29007KT 10SM CLR 12/M01 A3016 RMK AO2 SLP212 T01221006 =
2017-11-17 12:51 METAR KORF 171751Z AUTO 34005KT 10SM CLR 12/01 A3017 RMK AO2 SLP217 T01170006
                 10117 20072 58013 =
2017-11-17 11:51 METAR KORF 171651Z AUTO 01008KT 10SM CLR 11/01 A3019 RMK AO2 SLP221 T01060006 =
2017-11-17 10:51 METAR KORF 171551Z AUTO 36010KT 10SM CLR 10/01 A3021 RMK AO2 SLP230 T01000011 =
2017-11-17 09:51 METAR KORF 171451Z AUTO 35011G19KT 10SM CLR 09/01 A3021 RMK AO2 SLP230 T00890006
                 51010 =
2017-11-17 08:51 METAR KORF 171351Z AUTO VRB06KT 10SM CLR 09/01 A3021 RMK AO2 SLP229 T00890011 =
2017-11-17 07:51 METAR KORF 171251Z AUTO VRB05KT 10SM CLR 08/00 A3020 RMK AO2 SLP227 T00780000 =
2017-11-17 06:51 METAR KORF 171151Z 33007G19KT 10SM CLR 07/00 A3018 RMK AO2 SLP220 T00720000
                 10094 20072 53017 =
2017-11-17 05:51 METAR KORF 171051Z 33011G16KT 10SM CLR 08/00 A3016 RMK AO2 SLP214 T00780000 =
2017-11-17 04:51 METAR KORF 170951Z 35010G18KT 10SM CLR 08/00 A3015 RMK AO2 SLP208 T00780000 =
2017-11-17 03:51 METAR KORF 170851Z 35011G20KT 10SM CLR 08/00 A3013 RMK AO2 SLP203 T00780000
                 51014 =
2017-11-17 02:51 METAR KORF 170751Z 35009KT 10SM CLR 08/02 A3013 RMK AO2 SLP202 T00830017 =
2017-11-17 01:51 METAR KORF 170651Z 34007KT 10SM CLR 08/02 A3012 RMK AO2 SLP198 T00830017 =
2017-11-17 00:51 METAR KORF 170551Z 36011G19KT 10SM CLR 09/02 A3009 RMK AO2 SLP189 T00940017
                 10133 20083 51017 =
2017-11-16 23:51 METAR KORF 170451Z 36013G25KT 10SM CLR 10/01 A3008 RMK AO2 PK WND 01027/0353
                 SLP186 T01000011 401890083 =
2017-11-16 22:51 METAR KORF 170351Z 36015G23KT 10SM CLR 11/02 A3007 RMK AO2 SLP180 T01110022 =
2017-11-16 21:51 METAR KORF 170251Z AUTO 36014G22KT 10SM CLR 13/03 A3004 RMK AO2 SLP172 T01280028
                 53025 =
2017-11-16 20:51 METAR KORF 170151Z AUTO 24004KT 10SM CLR 09/06 A2999 RMK AO2 SLP155 T00940061 =
2017-11-16 19:51 METAR KORF 170051Z AUTO 22003KT 10SM CLR 08/05 A2998 RMK AO2 SLP150 T00830050 =
2017-11-16 18:51 METAR KORF 162351Z AUTO 28003KT 10SM CLR 12/07 A2997 RMK AO2 SLP147 T01170067
                 10189 20117 53021 =
2017-11-16 17:51 METAR KORF 162251Z AUTO 00000KT 10SM CLR 12/07 A2995 RMK AO2 SLP140 T01220072 =
2017-11-16 16:51 METAR KORF 162151Z AUTO 27004KT 10SM CLR 16/05 A2992 RMK AO2 SLP131 T01610050 =

Support USWX by starting your Amazon purchase here.